createdAt,value
2022-09-07T00:02:20.603Z,18.55
2022-09-07T00:04:47.042Z,18.62
2022-09-07T00:07:13.808Z,18.66
2022-09-07T00:09:40.238Z,18.59
2022-09-07T00:12:06.820Z,18.63
2022-09-07T00:14:34.538Z,18.65
2022-09-07T00:17:00.982Z,18.69
2022-09-07T00:19:27.433Z,18.65
2022-09-07T00:21:53.884Z,18.65
2022-09-07T00:24:20.361Z,18.61
2022-09-07T00:26:46.827Z,18.56
2022-09-07T00:29:13.271Z,18.61
2022-09-07T00:31:39.873Z,18.45
2022-09-07T00:34:06.582Z,18.53
2022-09-07T00:36:33.039Z,18.51
2022-09-07T00:38:59.566Z,18.52
2022-09-07T00:41:26.062Z,18.55
2022-09-07T00:43:55.897Z,18.60
2022-09-07T00:46:23.897Z,18.55
2022-09-07T00:49:10.634Z,18.58
2022-09-07T00:51:46.283Z,18.61
2022-09-07T00:54:18.873Z,18.67
2022-09-07T00:56:47.081Z,18.65
2022-09-07T00:59:16.600Z,18.66
2022-09-07T01:01:45.131Z,18.70
2022-09-07T01:04:12.016Z,18.74
2022-09-07T01:06:40.003Z,18.70
2022-09-07T01:09:14.242Z,18.69
2022-09-07T01:11:43.678Z,18.58
2022-09-07T01:14:14.961Z,18.56
2022-09-07T01:17:14.710Z,18.49
2022-09-07T01:20:02.986Z,18.52
2022-09-07T01:22:52.741Z,18.50
2022-09-07T01:25:41.227Z,18.58
2022-09-07T01:28:18.983Z,18.50
2022-09-07T01:30:55.744Z,18.40
2022-09-07T01:33:44.372Z,18.38
2022-09-07T01:36:20.231Z,18.45
2022-09-07T01:38:58.893Z,18.23
2022-09-07T01:41:42.690Z,18.31
2022-09-07T01:44:18.694Z,18.40
2022-09-07T01:47:07.721Z,18.43
2022-09-07T01:49:50.155Z,18.40
2022-09-07T01:52:32.064Z,18.44
2022-09-07T01:55:11.329Z,18.38
2022-09-07T01:57:45.956Z,18.46
2022-09-07T02:00:18.274Z,18.46
2022-09-07T02:03:08.664Z,18.51
2022-09-07T02:05:54.677Z,18.50
2022-09-07T02:08:32.469Z,18.47
2022-09-07T02:11:07.229Z,18.53
2022-09-07T02:13:50.922Z,18.56
2022-09-07T02:16:26.768Z,18.60
2022-09-07T02:18:56.450Z,18.60
2022-09-07T02:21:30.972Z,18.58
2022-09-07T02:24:06.211Z,18.55
2022-09-07T02:26:36.672Z,18.64
2022-09-07T02:29:03.540Z,18.57
2022-09-07T02:31:30.189Z,18.57
2022-09-07T02:33:57.130Z,18.55
2022-09-07T02:36:28.362Z,18.64
2022-09-07T02:38:54.816Z,18.64
2022-09-07T02:41:39.533Z,18.65
2022-09-07T02:44:15.570Z,18.69
2022-09-07T02:47:04.009Z,18.62
2022-09-07T02:50:05.789Z,18.67
2022-09-07T02:52:55.171Z,18.65
2022-09-07T02:55:31.616Z,18.64
2022-09-07T02:58:07.699Z,18.61
2022-09-07T03:00:43.116Z,18.55
2022-09-07T03:03:29.677Z,18.50
2022-09-07T03:06:01.710Z,18.55
2022-09-07T03:08:39.824Z,18.50
2022-09-07T03:11:07.389Z,18.57
2022-09-07T03:13:34.480Z,18.54
2022-09-07T03:16:01.039Z,18.56
2022-09-07T03:18:28.437Z,18.55
2022-09-07T03:20:55.502Z,18.43
2022-09-07T03:23:22.389Z,18.42
2022-09-07T03:25:49.344Z,18.44
2022-09-07T03:28:16.316Z,18.43
2022-09-07T03:30:49.698Z,18.46
2022-09-07T03:33:16.856Z,18.29
2022-09-07T03:35:44.730Z,18.38
2022-09-07T03:38:11.699Z,18.33
2022-09-07T03:40:38.173Z,18.28
2022-09-07T03:43:05.254Z,18.25
2022-09-07T03:45:31.731Z,18.32
2022-09-07T03:47:58.174Z,18.25
2022-09-07T03:50:24.613Z,18.27
2022-09-07T03:52:51.081Z,18.25
2022-09-07T03:55:17.588Z,18.27
2022-09-07T03:57:44.055Z,18.08
2022-09-07T04:00:11.378Z,18.01
2022-09-07T04:02:38.100Z,18.15
2022-09-07T04:05:04.991Z,18.15
2022-09-07T04:07:31.452Z,18.09
2022-09-07T04:09:57.921Z,18.18
2022-09-07T04:12:26.054Z,18.09
2022-09-07T04:14:52.503Z,17.98
2022-09-07T04:17:18.959Z,17.90
2022-09-07T04:19:45.414Z,18.01
2022-09-07T04:22:11.903Z,18.09
2022-09-07T04:24:38.366Z,18.06
2022-09-07T04:27:04.811Z,18.13
2022-09-07T04:29:31.314Z,18.09
2022-09-07T04:31:57.742Z,18.03
2022-09-07T04:34:24.227Z,18.08
2022-09-07T04:36:50.669Z,18.08
2022-09-07T04:39:17.167Z,17.97
2022-09-07T04:41:43.650Z,17.95
2022-09-07T04:44:12.621Z,17.87
2022-09-07T04:46:42.805Z,17.91
2022-09-07T04:49:11.067Z,17.92
2022-09-07T04:51:39.093Z,17.97
2022-09-07T04:54:06.269Z,17.84
2022-09-07T04:56:33.017Z,17.83
2022-09-07T04:59:01.356Z,17.83
2022-09-07T05:01:28.098Z,17.78
2022-09-07T05:03:54.661Z,17.87
2022-09-07T05:06:22.466Z,17.83
2022-09-07T05:08:51.449Z,17.85
2022-09-07T05:11:19.520Z,17.86
2022-09-07T05:13:46.298Z,17.89
2022-09-07T05:16:14.090Z,17.88
2022-09-07T05:18:40.767Z,17.89
2022-09-07T05:21:12.300Z,17.93
2022-09-07T05:23:39.153Z,17.82
2022-09-07T05:26:06.348Z,17.82
2022-09-07T05:28:48.324Z,17.83
2022-09-07T05:31:19.248Z,17.79
2022-09-07T05:36:40.988Z,17.84
2022-09-07T05:39:08.597Z,17.78
2022-09-07T05:41:35.290Z,17.80
2022-09-07T05:46:48.856Z,17.95
2022-09-07T05:49:15.298Z,18.09
2022-09-07T05:51:41.740Z,18.30
2022-09-07T05:54:08.325Z,18.46
2022-09-07T05:56:36.146Z,18.60
2022-09-07T05:59:03.714Z,18.76
2022-09-07T06:01:30.503Z,18.92
2022-09-07T06:03:57.449Z,19.08
2022-09-07T06:06:23.988Z,19.37
2022-09-07T06:08:52.503Z,19.57
2022-09-07T06:11:24.487Z,19.81
2022-09-07T06:13:51.958Z,19.93
2022-09-07T06:16:19.965Z,19.93
2022-09-07T06:18:48.792Z,19.89
2022-09-07T06:21:17.890Z,19.83
2022-09-07T06:23:45.732Z,19.93
2022-09-07T06:26:13.284Z,19.95
2022-09-07T06:28:42.042Z,20.25
2022-09-07T06:31:19.854Z,20.30
2022-09-07T06:33:47.783Z,20.74
2022-09-07T06:36:19.485Z,21.19
2022-09-07T06:38:47.101Z,21.48
2022-09-07T06:44:09.508Z,22.00
2022-09-07T06:49:23.681Z,22.60
2022-09-07T06:51:50.240Z,22.71
2022-09-07T06:57:09.027Z,23.24
2022-09-07T06:59:36.682Z,23.47
2022-09-07T07:02:04.550Z,23.66
2022-09-07T07:04:31.105Z,23.98
2022-09-07T07:06:58.365Z,24.30
2022-09-07T07:09:24.840Z,24.39
2022-09-07T07:11:51.277Z,24.96
2022-09-07T07:14:18.267Z,24.92
2022-09-07T07:16:44.934Z,25.41
2022-09-07T07:19:11.535Z,25.24
2022-09-07T07:22:03.484Z,25.32
2022-09-07T07:24:24.628Z,25.07
2022-09-07T07:26:51.254Z,25.36
2022-09-07T07:29:18.921Z,24.97
2022-09-07T07:31:46.941Z,25.22
2022-09-07T07:34:13.529Z,25.32
2022-09-07T07:36:39.959Z,25.18
2022-09-07T07:39:06.700Z,25.40
2022-09-07T07:44:20.714Z,25.72
2022-09-07T07:46:49.000Z,25.37
2022-09-07T07:49:15.999Z,24.86
2022-09-07T07:54:29.267Z,24.61
2022-09-07T07:56:55.708Z,25.58
2022-09-07T07:59:22.113Z,25.90
2022-09-07T08:01:48.608Z,26.28
2022-09-07T08:04:15.801Z,25.93
2022-09-07T08:06:43.026Z,26.43
2022-09-07T08:09:10.967Z,25.75
2022-09-07T08:11:39.685Z,26.20
2022-09-07T08:14:06.777Z,27.24
2022-09-07T08:16:34.117Z,27.82
2022-09-07T08:19:01.632Z,28.38
2022-09-07T08:21:28.245Z,28.79
2022-09-07T08:23:55.336Z,28.63
2022-09-07T08:26:21.775Z,28.99
2022-09-07T08:28:48.483Z,29.09
2022-09-07T08:31:17.120Z,29.11
2022-09-07T08:33:44.010Z,29.65
2022-09-07T08:36:13.337Z,30.64
2022-09-07T08:38:40.153Z,30.61
2022-09-07T08:41:28.354Z,31.61
2022-09-07T08:44:00.354Z,32.52
2022-09-07T08:46:40.833Z,32.79
2022-09-07T08:49:40.469Z,32.64
2022-09-07T08:52:15.702Z,32.52
2022-09-07T08:54:47.004Z,32.53
2022-09-07T08:57:21.049Z,33.62
2022-09-07T09:00:14.112Z,35.28
2022-09-07T09:05:55.067Z,35.21
2022-09-07T09:06:11.234Z,34.57
2022-09-07T09:08:44.610Z,35.52
2022-09-07T09:11:16.165Z,34.32
2022-09-07T09:14:10.486Z,34.18
2022-09-07T09:16:47.381Z,33.39
2022-09-07T09:19:30.244Z,34.92
2022-09-07T09:22:25.644Z,36.96
2022-09-07T09:24:58.914Z,34.50
2022-09-07T09:27:25.382Z,34.68
2022-09-07T09:29:51.843Z,35.39
2022-09-07T09:32:36.016Z,34.34
2022-09-07T09:35:15.471Z,33.75
2022-09-07T09:37:43.288Z,34.97
2022-09-07T09:40:20.864Z,34.54
2022-09-07T09:42:47.951Z,34.01
2022-09-07T09:45:20.799Z,31.97
2022-09-07T09:47:52.709Z,32.09
2022-09-07T09:53:23.977Z,34.13
2022-09-07T09:55:53.403Z,34.71
2022-09-07T10:04:35.145Z,37.17
2022-09-07T10:07:22.126Z,36.73
2022-09-07T10:09:51.750Z,37.72
2022-09-07T10:12:32.166Z,38.33
2022-09-07T10:15:01.361Z,37.74
2022-09-07T10:17:33.675Z,38.35
2022-09-07T10:20:02.250Z,37.59
2022-09-07T10:22:33.222Z,37.98
2022-09-07T10:25:01.301Z,35.16
2022-09-07T10:27:38.554Z,37.59
2022-09-07T10:30:15.826Z,38.10
2022-09-07T10:32:57.734Z,38.62
2022-09-07T10:35:28.485Z,37.22
2022-09-07T10:38:21.052Z,35.93
2022-09-07T10:40:58.839Z,36.34
2022-09-07T10:43:47.255Z,33.01
2022-09-07T10:49:18.716Z,32.73
2022-09-07T10:52:22.979Z,32.95
2022-09-07T10:55:11.983Z,33.51
2022-09-07T10:57:51.854Z,33.51
2022-09-07T11:00:20.481Z,33.32
2022-09-07T11:03:28.122Z,32.22
2022-09-07T11:06:31.430Z,30.50
2022-09-07T11:09:17.592Z,29.57
2022-09-07T11:12:07.262Z,29.08
2022-09-07T11:14:48.276Z,29.33
2022-09-07T11:17:21.722Z,29.19
2022-09-07T11:20:03.226Z,28.84
2022-09-07T11:22:43.401Z,28.54
2022-09-07T11:25:29.443Z,28.83
2022-09-07T11:28:01.673Z,28.69
2022-09-07T11:30:35.808Z,28.97
2022-09-07T11:33:10.993Z,29.24
2022-09-07T11:35:55.186Z,28.86
2022-09-07T11:38:33.780Z,29.49
2022-09-07T11:41:23.513Z,30.18
2022-09-07T11:44:02.267Z,31.15
2022-09-07T11:46:40.550Z,31.35
2022-09-07T11:49:15.745Z,31.42
2022-09-07T11:51:53.735Z,30.97
2022-09-07T11:54:23.437Z,31.27
2022-09-07T11:56:57.765Z,31.31
2022-09-07T12:00:02.469Z,31.15
2022-09-07T12:03:06.385Z,30.98
2022-09-07T12:06:11.882Z,30.52
2022-09-07T12:09:10.842Z,29.90
2022-09-07T12:12:07.130Z,29.72
2022-09-07T12:14:48.940Z,30.15
2022-09-07T12:17:37.814Z,30.03
2022-09-07T12:20:20.650Z,30.25
2022-09-07T12:23:05.502Z,30.08
2022-09-07T12:25:34.129Z,30.19
2022-09-07T12:28:01.248Z,30.33
2022-09-07T12:30:29.080Z,29.92
2022-09-07T12:32:56.930Z,29.19
2022-09-07T12:35:30.033Z,29.62
2022-09-07T12:37:58.372Z,29.68
2022-09-07T12:40:32.066Z,29.31
2022-09-07T12:43:13.615Z,29.17
2022-09-07T12:45:40.034Z,29.28
2022-09-07T12:48:15.485Z,29.22
2022-09-07T12:50:58.772Z,29.56
2022-09-07T12:53:46.850Z,29.47
2022-09-07T12:56:22.374Z,30.23
2022-09-07T12:59:26.138Z,30.41
2022-09-07T13:02:16.375Z,30.67
2022-09-07T13:04:58.297Z,30.01
2022-09-07T13:07:50.910Z,29.99
2022-09-07T13:10:36.006Z,30.38
2022-09-07T13:13:05.228Z,30.44
2022-09-07T13:15:45.698Z,30.47
2022-09-07T13:18:27.430Z,30.51
2022-09-07T13:21:09.192Z,30.57
2022-09-07T13:23:39.993Z,30.57
2022-09-07T13:26:10.674Z,30.69
2022-09-07T13:28:58.078Z,30.73
2022-09-07T13:31:33.572Z,31.04
2022-09-07T13:34:00.525Z,31.00
2022-09-07T13:36:45.291Z,30.88
2022-09-07T13:39:15.795Z,30.19
2022-09-07T13:41:52.173Z,29.99
2022-09-07T13:44:26.598Z,29.69
2022-09-07T13:47:13.366Z,29.64
2022-09-07T13:49:58.076Z,29.60
2022-09-07T13:52:43.894Z,29.91
2022-09-07T13:55:25.171Z,29.93
2022-09-07T13:57:55.133Z,29.89
2022-09-07T14:00:21.625Z,29.30
2022-09-07T14:02:56.519Z,29.32
2022-09-07T14:05:23.740Z,29.43
2022-09-07T14:07:50.162Z,29.16
2022-09-07T14:10:20.738Z,28.95
2022-09-07T14:12:51.487Z,29.17
2022-09-07T14:15:42.288Z,29.58
2022-09-07T14:18:18.634Z,29.89
2022-09-07T14:20:52.816Z,29.46
2022-09-07T14:23:22.952Z,29.26
2022-09-07T14:26:23.108Z,28.94
2022-09-07T14:28:52.426Z,28.25
2022-09-07T14:31:20.822Z,28.49
2022-09-07T14:33:59.341Z,28.33
2022-09-07T14:36:46.843Z,28.42
2022-09-07T14:39:19.547Z,28.25
2022-09-07T14:41:46.727Z,27.96
2022-09-07T14:44:30.801Z,27.69
2022-09-07T14:46:59.994Z,27.65
2022-09-07T14:49:26.667Z,27.59
2022-09-07T14:51:54.573Z,27.53
2022-09-07T14:54:25.630Z,27.45
2022-09-07T14:57:18.315Z,27.32
2022-09-07T14:59:46.981Z,27.15
2022-09-07T15:02:24.002Z,26.42
2022-09-07T15:05:27.131Z,26.16
2022-09-07T15:07:54.981Z,26.08
2022-09-07T15:10:21.430Z,26.25
2022-09-07T15:12:53.011Z,26.33
2022-09-07T15:15:21.765Z,26.28
2022-09-07T15:17:48.907Z,26.18
2022-09-07T15:20:43.007Z,26.19
2022-09-07T15:23:15.270Z,26.04
2022-09-07T15:25:45.367Z,26.07
2022-09-07T15:34:03.107Z,25.81
2022-09-07T15:36:31.958Z,25.60
2022-09-07T15:39:00.530Z,25.62
2022-09-07T15:41:28.503Z,25.57
2022-09-07T15:43:56.779Z,25.53
2022-09-07T15:46:25.106Z,25.54
2022-09-07T15:48:55.712Z,25.43
2022-09-07T15:54:13.117Z,25.23
2022-09-07T15:56:42.323Z,25.02
2022-09-07T15:59:10.069Z,24.83
2022-09-07T16:01:52.526Z,24.69
2022-09-07T16:04:19.846Z,24.64
2022-09-07T16:06:48.236Z,24.69
2022-09-07T16:09:15.538Z,24.49
2022-09-07T16:11:41.999Z,24.36
2022-09-07T16:14:11.689Z,24.24
2022-09-07T16:19:25.511Z,24.07
2022-09-07T16:21:51.955Z,24.11
2022-09-07T16:24:18.649Z,23.99
2022-09-07T16:26:45.111Z,23.85
2022-09-07T16:29:11.719Z,23.83
2022-09-07T16:31:38.439Z,23.89
2022-09-07T16:34:05.454Z,23.85
2022-09-07T16:36:32.065Z,23.92
2022-09-07T16:39:00.533Z,24.13
2022-09-07T16:41:31.907Z,24.04
2022-09-07T16:43:59.078Z,23.91
2022-09-07T16:46:28.391Z,23.96
2022-09-07T16:48:55.240Z,23.98
2022-09-07T16:51:23.066Z,24.04
2022-09-07T16:53:51.479Z,24.05
2022-09-07T16:56:20.373Z,24.00
2022-09-07T16:58:49.718Z,23.85
2022-09-07T17:01:19.261Z,23.63
2022-09-07T17:03:46.548Z,23.38
2022-09-07T17:06:14.901Z,23.22
2022-09-07T17:08:42.386Z,23.07
2022-09-07T17:11:11.564Z,23.14
2022-09-07T17:13:39.638Z,23.19
2022-09-07T17:16:19.946Z,23.32
2022-09-07T17:21:36.453Z,23.16
2022-09-07T17:24:05.098Z,23.06
2022-09-07T17:26:32.157Z,23.04
2022-09-07T17:29:00.769Z,23.17
2022-09-07T17:34:16.616Z,23.11
2022-09-07T17:36:43.125Z,22.97
2022-09-07T17:39:18.929Z,22.85
2022-09-07T17:41:47.656Z,22.78
2022-09-07T17:44:14.253Z,22.77
2022-09-07T17:46:40.876Z,22.87
2022-09-07T17:49:11.158Z,22.93
2022-09-07T17:51:38.010Z,22.77
2022-09-07T17:54:09.997Z,22.46
2022-09-07T17:56:40.054Z,22.47
2022-09-07T18:01:56.524Z,22.05
2022-09-07T18:04:23.481Z,21.92
2022-09-07T18:06:50.430Z,21.77
2022-09-07T18:09:17.345Z,21.77
2022-09-07T18:11:45.978Z,21.76
2022-09-07T18:14:14.726Z,21.79
2022-09-07T18:16:43.385Z,21.76
2022-09-07T18:19:11.082Z,21.68
2022-09-07T18:21:38.022Z,21.65
2022-09-07T18:24:07.714Z,21.61
2022-09-07T18:26:38.350Z,21.67
2022-09-07T18:29:13.150Z,21.76
2022-09-07T18:31:52.286Z,21.94
2022-09-07T18:34:18.785Z,21.72
2022-09-07T18:36:45.216Z,21.62
2022-09-07T18:39:13.152Z,21.60
2022-09-07T18:41:40.875Z,21.56
2022-09-07T18:45:27.335Z,21.47
2022-09-07T18:46:54.391Z,21.31
2022-09-07T18:49:20.885Z,21.29
2022-09-07T18:54:33.800Z,21.26
2022-09-07T18:57:00.350Z,21.32
2022-09-07T18:59:26.858Z,21.34
2022-09-07T19:01:54.111Z,21.33
2022-09-07T19:04:21.167Z,21.42
2022-09-07T19:06:47.955Z,21.28
2022-09-07T19:09:14.445Z,21.31
2022-09-07T19:11:42.180Z,21.27
2022-09-07T19:14:08.852Z,21.25
2022-09-07T19:16:35.824Z,21.17
2022-09-07T19:19:05.510Z,21.17
2022-09-07T19:21:37.373Z,21.16
2022-09-07T19:24:05.077Z,21.23
2022-09-07T19:26:43.194Z,21.20
2022-09-07T19:29:15.686Z,21.21
2022-09-07T19:32:08.565Z,21.23
2022-09-07T19:34:40.829Z,21.22
2022-09-07T19:37:09.326Z,21.24
2022-09-07T19:39:35.952Z,21.15
2022-09-07T19:42:04.393Z,21.11
2022-09-07T19:44:31.008Z,21.15
2022-09-07T19:46:57.532Z,21.29
2022-09-07T19:49:24.057Z,21.38
2022-09-07T19:51:51.903Z,21.30
2022-09-07T19:54:19.180Z,21.35
2022-09-07T19:56:46.030Z,21.17
2022-09-07T19:59:13.204Z,21.01
2022-09-07T20:01:43.709Z,20.97
2022-09-07T20:04:16.006Z,20.96
2022-09-07T20:06:46.308Z,20.94
2022-09-07T20:09:15.905Z,20.80
2022-09-07T20:11:46.568Z,20.80
2022-09-07T20:14:14.651Z,20.79
2022-09-07T20:16:41.763Z,20.78
2022-09-07T20:19:10.371Z,20.82
2022-09-07T20:21:36.935Z,20.80
2022-09-07T20:24:04.255Z,20.73
2022-09-07T20:26:32.236Z,20.65
2022-09-07T20:29:23.341Z,20.63
2022-09-07T20:31:46.613Z,20.68
2022-09-07T20:34:13.249Z,20.63
2022-09-07T20:36:40.039Z,20.58
2022-09-07T20:39:06.553Z,20.50
2022-09-07T20:41:34.205Z,20.55
2022-09-07T20:44:03.542Z,20.51
2022-09-07T20:46:30.868Z,20.62
2022-09-07T20:48:57.810Z,20.54
2022-09-07T20:51:24.368Z,20.58
2022-09-07T20:53:51.552Z,20.43
2022-09-07T20:56:23.182Z,20.46
2022-09-07T20:58:54.862Z,20.37
2022-09-07T21:01:21.832Z,20.33
2022-09-07T21:03:51.349Z,20.41
2022-09-07T21:06:19.151Z,20.30
2022-09-07T21:08:46.798Z,20.23
2022-09-07T21:11:15.140Z,20.23
2022-09-07T21:13:41.875Z,20.17
2022-09-07T21:16:11.679Z,20.32
2022-09-07T21:18:39.297Z,20.34
2022-09-07T21:21:21.883Z,20.27
2022-09-07T21:23:48.966Z,20.42
2022-09-07T21:26:20.855Z,20.40
2022-09-07T21:28:47.340Z,20.38
2022-09-07T21:31:13.791Z,20.33
2022-09-07T21:33:40.239Z,20.37
2022-09-07T21:36:12.308Z,20.20
2022-09-07T21:38:40.476Z,19.85
2022-09-07T21:41:11.668Z,19.58
2022-09-07T21:43:38.459Z,19.41
2022-09-07T21:46:09.992Z,19.35
2022-09-07T21:48:36.797Z,19.32
2022-09-07T21:51:04.336Z,19.27
2022-09-07T21:53:30.991Z,19.21
2022-09-07T21:56:02.545Z,19.27
2022-09-07T21:58:29.822Z,19.34
2022-09-07T22:00:57.037Z,19.30
2022-09-07T22:03:25.124Z,19.11
2022-09-07T22:05:51.635Z,19.10
2022-09-07T22:08:19.029Z,19.14
2022-09-07T22:10:46.506Z,19.08
2022-09-07T22:13:13.060Z,19.08
2022-09-07T22:15:40.916Z,19.04
2022-09-07T22:18:12.695Z,19.11
2022-09-07T22:20:40.074Z,19.05
2022-09-07T22:23:06.510Z,19.11
2022-09-07T22:25:33.435Z,19.05
2022-09-07T22:27:59.952Z,19.16
2022-09-07T22:30:26.764Z,19.07
2022-09-07T22:32:53.282Z,19.03
2022-09-07T22:35:20.654Z,19.02
2022-09-07T22:37:47.272Z,18.93
2022-09-07T22:40:14.765Z,18.98
2022-09-07T22:42:41.847Z,19.07
2022-09-07T22:45:08.733Z,18.99
2022-09-07T22:47:35.151Z,19.05
2022-09-07T22:50:01.664Z,19.09
2022-09-07T22:52:28.184Z,19.18
2022-09-07T22:54:54.598Z,19.18
2022-09-07T22:57:21.066Z,19.26
2022-09-07T22:59:47.455Z,19.25
2022-09-07T23:02:13.887Z,19.28
2022-09-07T23:04:40.388Z,19.30
2022-09-07T23:07:07.700Z,19.24
2022-09-07T23:09:34.443Z,19.27
2022-09-07T23:12:00.946Z,19.25
2022-09-07T23:14:27.576Z,19.34
2022-09-07T23:16:54.030Z,19.29
2022-09-07T23:19:20.865Z,19.40
2022-09-07T23:21:47.797Z,19.38
2022-09-07T23:24:16.736Z,19.41
2022-09-07T23:26:43.262Z,19.38
2022-09-07T23:29:11.688Z,19.46
2022-09-07T23:31:38.341Z,19.50
2022-09-07T23:34:04.948Z,19.56
2022-09-07T23:36:31.494Z,19.37
2022-09-07T23:38:59.468Z,19.38
2022-09-07T23:41:27.258Z,19.33
2022-09-07T23:43:54.827Z,19.24
2022-09-07T23:46:21.601Z,19.18
2022-09-07T23:48:49.021Z,19.11
2022-09-07T23:51:19.954Z,19.07
2022-09-07T23:53:49.579Z,19.00
2022-09-07T23:56:16.061Z,19.10
2022-09-07T23:58:42.564Z,19.08
